West Palm Beach, FL

2:30 AM EDT on July 28, 2016 (GMT -0400)
Loxahatchee Groves | | Change Station

Elev 49 ft 26.71 °N, 80.28 °W | Updated 3 seconds ago

Scattered Clouds
Scattered Clouds
76.8 °F
Feels Like 77 °F
N
0.0
Wind Variable Wind from NNW
Gusts 0.0 mph

Today
High -- | Low -- °F
--% Chance of Precip.
Yesterday
High -- | Low -- °F
Precip. -- in
Pressure 30.06 in
Visibility 10.0 miles
Clouds Few 2100 ft
Scattered Clouds 4200 ft
Heat Index 77 °F
Dew Point 76 °F
Humidity 97%
Rainfall 0.00 in
Snow Depth Not available.
6:44 AM 8:10 PM
Waning Crescent, 35% visible
METAR KPBI 280553Z 12003KT 10SM FEW021 SCT042 29/24 A3006 RMK AO2 SLP178 T02890239 10300 20289 58007 $
Pressure 30.06 in
Visibility 10.0 miles
Clouds Few 2100 ft
Scattered Clouds 4200 ft
Heat Index 77 °F
Dew Point 76 °F
Humidity 97%
Rainfall 0.00 in
Snow Depth Not available.
6:44 AM 8:10 PM
Waning Crescent, 35% visible
METAR KPBI 280553Z 12003KT 10SM FEW021 SCT042 29/24 A3006 RMK AO2 SLP178 T02890239 10300 20289 58007 $

10-Day Weather Forecast

Almanac

Astronomy

Jul. 28, 2016 Rise Set
Actual Time
Civil Twilight
Nautical Twilight
Astronomical Twilight
Moon
Length of Visible Light
Length of Day
Tomorrow will be .
, % of the Moon is Illuminated

Today's Extremes

State Highs State Lows

Community

WunderPhotos

Upload Photos

1,928,064 photos uploaded!

WunderBlog® & News

Nearby

Air Quality

  Air Quality AQ Index Pollutant
Not available.

Snow Depth

Station Depth Elevation

Earthquake Activity

City Distance Mag. Time & Date
Minimum magnitude displayed is 2.5.

Coastal Water Temperatures

Place Temperature

Stations

Nearby Weather Stations

Station Location Temp. Windchill Dew Point Humidity Wind Precip. Elev Updated Type
                   

Watches & Warnings

There are currently no watches in effect.